sensor_id;sensor_type;location;lat;lon;timestamp;P1;durP1;ratioP1;P2;durP2;ratioP2
4210;SDS011;2119;48.828;12.396;2022-08-19T00:03:32;17.55;;;16.05;;
4210;SDS011;2119;48.828;12.396;2022-08-19T00:08:32;17.07;;;15.47;;
4210;SDS011;2119;48.828;12.396;2022-08-19T00:13:33;17.30;;;15.80;;
4210;SDS011;2119;48.828;12.396;2022-08-19T00:18:33;17.30;;;15.80;;
4210;SDS011;2119;48.828;12.396;2022-08-19T00:23:34;17.40;;;15.70;;
4210;SDS011;2119;48.828;12.396;2022-08-19T00:28:36;16.90;;;15.30;;
4210;SDS011;2119;48.828;12.396;2022-08-19T00:33:36;20.38;;;18.40;;
4210;SDS011;2119;48.828;12.396;2022-08-19T00:38:37;20.83;;;18.70;;
4210;SDS011;2119;48.828;12.396;2022-08-19T00:43:38;20.90;;;18.93;;
4210;SDS011;2119;48.828;12.396;2022-08-19T00:48:38;20.80;;;18.80;;
4210;SDS011;2119;48.828;12.396;2022-08-19T00:53:39;22.50;;;20.30;;
4210;SDS011;2119;48.828;12.396;2022-08-19T00:58:39;21.60;;;19.60;;
4210;SDS011;2119;48.828;12.396;2022-08-19T01:03:40;21.87;;;19.83;;
4210;SDS011;2119;48.828;12.396;2022-08-19T01:08:41;24.50;;;22.10;;
4210;SDS011;2119;48.828;12.396;2022-08-19T01:13:41;26.53;;;23.93;;
4210;SDS011;2119;48.828;12.396;2022-08-19T01:18:42;25.00;;;22.60;;
4210;SDS011;2119;48.828;12.396;2022-08-19T01:23:43;26.13;;;23.43;;
4210;SDS011;2119;48.828;12.396;2022-08-19T01:28:44;29.20;;;26.30;;
4210;SDS011;2119;48.828;12.396;2022-08-19T01:33:45;26.53;;;23.93;;
4210;SDS011;2119;48.828;12.396;2022-08-19T01:38:46;26.37;;;23.67;;
4210;SDS011;2119;48.828;12.396;2022-08-19T01:43:46;27.33;;;24.63;;
4210;SDS011;2119;48.828;12.396;2022-08-19T01:48:47;27.90;;;25.15;;
4210;SDS011;2119;48.828;12.396;2022-08-19T01:53:47;29.37;;;26.40;;
4210;SDS011;2119;48.828;12.396;2022-08-19T01:58:51;30.53;;;27.43;;
4210;SDS011;2119;48.828;12.396;2022-08-19T02:03:53;28.27;;;25.47;;
4210;SDS011;2119;48.828;12.396;2022-08-19T02:08:54;27.73;;;25.00;;
4210;SDS011;2119;48.828;12.396;2022-08-19T02:13:54;30.13;;;26.93;;
4210;SDS011;2119;48.828;12.396;2022-08-19T02:18:54;31.67;;;27.33;;
4210;SDS011;2119;48.828;12.396;2022-08-19T02:23:55;31.23;;;27.83;;
4210;SDS011;2119;48.828;12.396;2022-08-19T02:28:55;28.20;;;25.43;;
4210;SDS011;2119;48.828;12.396;2022-08-19T02:33:56;28.43;;;25.33;;
4210;SDS011;2119;48.828;12.396;2022-08-19T02:38:56;26.17;;;22.07;;
4210;SDS011;2119;48.828;12.396;2022-08-19T02:43:57;26.15;;;23.65;;
4210;SDS011;2119;48.828;12.396;2022-08-19T02:49:00;26.10;;;23.20;;
4210;SDS011;2119;48.828;12.396;2022-08-19T02:54:07;24.90;;;22.40;;
4210;SDS011;2119;48.828;12.396;2022-08-19T02:59:07;25.00;;;22.60;;
4210;SDS011;2119;48.828;12.396;2022-08-19T03:04:11;26.50;;;23.80;;
4210;SDS011;2119;48.828;12.396;2022-08-19T03:09:12;26.27;;;23.10;;
4210;SDS011;2119;48.828;12.396;2022-08-19T03:14:13;25.80;;;23.30;;
4210;SDS011;2119;48.828;12.396;2022-08-19T03:19:16;29.80;;;25.80;;
4210;SDS011;2119;48.828;12.396;2022-08-19T03:24:17;26.63;;;23.90;;
4210;SDS011;2119;48.828;12.396;2022-08-19T03:29:19;28.20;;;25.30;;
4210;SDS011;2119;48.828;12.396;2022-08-19T03:34:21;26.50;;;23.80;;
4210;SDS011;2119;48.828;12.396;2022-08-19T03:39:22;27.13;;;24.50;;
4210;SDS011;2119;48.828;12.396;2022-08-19T03:44:22;25.60;;;23.10;;
4210;SDS011;2119;48.828;12.396;2022-08-19T03:49:24;26.70;;;24.13;;
4210;SDS011;2119;48.828;12.396;2022-08-19T03:54:24;26.97;;;24.33;;
4210;SDS011;2119;48.828;12.396;2022-08-19T03:59:26;26.77;;;23.93;;
4210;SDS011;2119;48.828;12.396;2022-08-19T04:04:27;28.20;;;23.20;;
4210;SDS011;2119;48.828;12.396;2022-08-19T04:09:28;27.27;;;24.47;;
4210;SDS011;2119;48.828;12.396;2022-08-19T04:14:29;26.43;;;23.80;;
4210;SDS011;2119;48.828;12.396;2022-08-19T04:19:34;26.30;;;23.60;;
4210;SDS011;2119;48.828;12.396;2022-08-19T04:24:34;29.80;;;26.80;;
4210;SDS011;2119;48.828;12.396;2022-08-19T04:29:35;32.33;;;29.13;;
4210;SDS011;2119;48.828;12.396;2022-08-19T04:34:35;32.70;;;29.20;;
4210;SDS011;2119;48.828;12.396;2022-08-19T04:39:36;34.90;;;31.20;;
4210;SDS011;2119;48.828;12.396;2022-08-19T04:44:55;32.90;;;29.40;;
4210;SDS011;2119;48.828;12.396;2022-08-19T04:49:55;32.70;;;29.20;;
4210;SDS011;2119;48.828;12.396;2022-08-19T04:54:55;33.83;;;30.33;;
4210;SDS011;2119;48.828;12.396;2022-08-19T04:59:56;32.93;;;29.40;;
4210;SDS011;2119;48.828;12.396;2022-08-19T05:04:57;34.27;;;30.50;;
4210;SDS011;2119;48.828;12.396;2022-08-19T05:09:58;33.93;;;30.40;;
4210;SDS011;2119;48.828;12.396;2022-08-19T05:14:59;34.95;;;31.15;;
4210;SDS011;2119;48.828;12.396;2022-08-19T05:20:00;34.53;;;30.97;;
4210;SDS011;2119;48.828;12.396;2022-08-19T05:25:20;36.93;;;31.37;;
4210;SDS011;2119;48.828;12.396;2022-08-19T05:30:20;33.70;;;30.30;;
4210;SDS011;2119;48.828;12.396;2022-08-19T05:35:21;35.65;;;31.92;;
4210;SDS011;2119;48.828;12.396;2022-08-19T05:40:24;36.53;;;32.03;;
4210;SDS011;2119;48.828;12.396;2022-08-19T05:45:24;36.28;;;31.15;;
4210;SDS011;2119;48.828;12.396;2022-08-19T05:50:24;38.37;;;32.60;;
4210;SDS011;2119;48.828;12.396;2022-08-19T05:55:28;36.47;;;32.50;;
4210;SDS011;2119;48.828;12.396;2022-08-19T06:00:28;40.40;;;33.97;;
4210;SDS011;2119;48.828;12.396;2022-08-19T06:05:30;41.20;;;33.20;;
4210;SDS011;2119;48.828;12.396;2022-08-19T06:10:30;34.55;;;30.67;;
4210;SDS011;2119;48.828;12.396;2022-08-19T06:15:31;37.73;;;31.73;;
4210;SDS011;2119;48.828;12.396;2022-08-19T06:20:31;38.07;;;32.70;;
4210;SDS011;2119;48.828;12.396;2022-08-19T06:25:32;34.20;;;30.50;;
4210;SDS011;2119;48.828;12.396;2022-08-19T06:30:32;37.20;;;32.00;;
4210;SDS011;2119;48.828;12.396;2022-08-19T06:35:33;33.30;;;29.48;;
4210;SDS011;2119;48.828;12.396;2022-08-19T06:40:38;28.70;;;25.80;;
4210;SDS011;2119;48.828;12.396;2022-08-19T06:45:38;28.67;;;25.67;;
4210;SDS011;2119;48.828;12.396;2022-08-19T06:50:38;28.40;;;25.57;;
4210;SDS011;2119;48.828;12.396;2022-08-19T06:55:39;28.67;;;25.55;;
4210;SDS011;2119;48.828;12.396;2022-08-19T07:00:40;29.23;;;26.27;;
4210;SDS011;2119;48.828;12.396;2022-08-19T07:05:40;29.73;;;26.63;;
4210;SDS011;2119;48.828;12.396;2022-08-19T07:10:44;28.40;;;25.50;;
4210;SDS011;2119;48.828;12.396;2022-08-19T07:15:45;30.77;;;27.63;;
4210;SDS011;2119;48.828;12.396;2022-08-19T07:20:46;32.13;;;28.80;;
4210;SDS011;2119;48.828;12.396;2022-08-19T07:25:47;29.47;;;26.37;;
4210;SDS011;2119;48.828;12.396;2022-08-19T07:30:48;28.20;;;25.40;;
4210;SDS011;2119;48.828;12.396;2022-08-19T07:35:50;26.43;;;23.70;;
4210;SDS011;2119;48.828;12.396;2022-08-19T07:40:50;27.23;;;24.50;;
4210;SDS011;2119;48.828;12.396;2022-08-19T07:45:52;28.73;;;25.97;;
4210;SDS011;2119;48.828;12.396;2022-08-19T07:50:57;25.57;;;23.07;;
4210;SDS011;2119;48.828;12.396;2022-08-19T07:55:58;25.37;;;22.87;;
4210;SDS011;2119;48.828;12.396;2022-08-19T08:01:02;26.80;;;24.30;;
4210;SDS011;2119;48.828;12.396;2022-08-19T08:06:03;24.20;;;21.97;;
4210;SDS011;2119;48.828;12.396;2022-08-19T08:11:22;25.30;;;22.73;;
4210;SDS011;2119;48.828;12.396;2022-08-19T08:16:22;22.85;;;20.65;;
4210;SDS011;2119;48.828;12.396;2022-08-19T08:21:25;22.77;;;20.47;;
4210;SDS011;2119;48.828;12.396;2022-08-19T08:26:25;21.43;;;19.20;;
4210;SDS011;2119;48.828;12.396;2022-08-19T08:31:26;21.23;;;19.23;;
4210;SDS011;2119;48.828;12.396;2022-08-19T08:36:26;21.30;;;19.30;;
4210;SDS011;2119;48.828;12.396;2022-08-19T08:46:42;21.57;;;19.47;;
4210;SDS011;2119;48.828;12.396;2022-08-19T08:52:21;21.90;;;19.03;;
4210;SDS011;2119;48.828;12.396;2022-08-19T09:02:36;19.20;;;17.40;;
4210;SDS011;2119;48.828;12.396;2022-08-19T09:13:39;21.73;;;19.73;;
4210;SDS011;2119;48.828;12.396;2022-08-19T09:18:07;20.47;;;18.57;;
4210;SDS011;2119;48.828;12.396;2022-08-19T09:23:08;18.90;;;17.20;;
4210;SDS011;2119;48.828;12.396;2022-08-19T09:28:09;18.77;;;17.07;;
4210;SDS011;2119;48.828;12.396;2022-08-19T09:33:09;20.43;;;18.50;;
4210;SDS011;2119;48.828;12.396;2022-08-19T09:38:10;20.50;;;18.50;;
4210;SDS011;2119;48.828;12.396;2022-08-19T09:43:10;21.27;;;19.07;;
4210;SDS011;2119;48.828;12.396;2022-08-19T09:48:11;21.03;;;19.03;;
4210;SDS011;2119;48.828;12.396;2022-08-19T09:53:11;21.38;;;19.27;;
4210;SDS011;2119;48.828;12.396;2022-08-19T09:58:11;21.30;;;19.30;;
4210;SDS011;2119;48.828;12.396;2022-08-19T10:03:11;20.97;;;19.00;;
4210;SDS011;2119;48.828;12.396;2022-08-19T10:08:12;26.13;;;20.33;;
4210;SDS011;2119;48.828;12.396;2022-08-19T10:13:13;22.47;;;20.37;;
4210;SDS011;2119;48.828;12.396;2022-08-19T10:18:14;21.90;;;19.50;;
4210;SDS011;2119;48.828;12.396;2022-08-19T10:23:18;21.80;;;19.60;;
4210;SDS011;2119;48.828;12.396;2022-08-19T10:28:19;23.70;;;21.10;;
4210;SDS011;2119;48.828;12.396;2022-08-19T10:33:19;20.27;;;18.37;;
4210;SDS011;2119;48.828;12.396;2022-08-19T10:38:19;19.47;;;17.73;;
4210;SDS011;2119;48.828;12.396;2022-08-19T10:43:21;20.47;;;18.33;;
4210;SDS011;2119;48.828;12.396;2022-08-19T10:48:21;20.53;;;18.53;;
4210;SDS011;2119;48.828;12.396;2022-08-19T10:53:22;21.20;;;19.30;;
4210;SDS011;2119;48.828;12.396;2022-08-19T10:58:25;19.13;;;17.37;;
4210;SDS011;2119;48.828;12.396;2022-08-19T11:03:26;18.50;;;16.70;;
4210;SDS011;2119;48.828;12.396;2022-08-19T11:08:27;17.03;;;15.53;;
4210;SDS011;2119;48.828;12.396;2022-08-19T11:13:31;18.83;;;17.13;;
4210;SDS011;2119;48.828;12.396;2022-08-19T11:18:34;19.10;;;17.27;;
4210;SDS011;2119;48.828;12.396;2022-08-19T11:23:35;20.20;;;18.27;;
4210;SDS011;2119;48.828;12.396;2022-08-19T11:28:36;18.93;;;17.33;;
4210;SDS011;2119;48.828;12.396;2022-08-19T11:33:36;18.83;;;17.07;;
4210;SDS011;2119;48.828;12.396;2022-08-19T11:38:36;18.73;;;17.03;;
4210;SDS011;2119;48.828;12.396;2022-08-19T11:43:36;20.40;;;18.30;;
4210;SDS011;2119;48.828;12.396;2022-08-19T11:48:37;18.30;;;16.60;;
4210;SDS011;2119;48.828;12.396;2022-08-19T11:53:38;17.50;;;15.70;;
4210;SDS011;2119;48.828;12.396;2022-08-19T11:58:38;18.80;;;17.00;;
4210;SDS011;2119;48.828;12.396;2022-08-19T12:03:39;21.60;;;19.50;;
4210;SDS011;2119;48.828;12.396;2022-08-19T12:08:40;20.90;;;18.90;;
4210;SDS011;2119;48.828;12.396;2022-08-19T12:13:41;23.23;;;21.17;;
4210;SDS011;2119;48.828;12.396;2022-08-19T12:18:45;25.77;;;23.13;;
4210;SDS011;2119;48.828;12.396;2022-08-19T12:23:46;25.60;;;22.93;;
4210;SDS011;2119;48.828;12.396;2022-08-19T12:28:46;26.60;;;23.93;;
4210;SDS011;2119;48.828;12.396;2022-08-19T12:33:48;24.50;;;22.07;;
4210;SDS011;2119;48.828;12.396;2022-08-19T12:38:48;23.27;;;20.92;;
4210;SDS011;2119;48.828;12.396;2022-08-19T12:43:48;22.73;;;20.33;;
4210;SDS011;2119;48.828;12.396;2022-08-19T12:48:49;22.33;;;20.33;;
4210;SDS011;2119;48.828;12.396;2022-08-19T12:53:52;20.83;;;18.87;;
4210;SDS011;2119;48.828;12.396;2022-08-19T12:58:52;21.77;;;19.67;;
4210;SDS011;2119;48.828;12.396;2022-08-19T13:03:52;19.03;;;17.33;;
4210;SDS011;2119;48.828;12.396;2022-08-19T13:08:53;20.33;;;18.50;;
4210;SDS011;2119;48.828;12.396;2022-08-19T13:13:53;19.60;;;17.73;;
4210;SDS011;2119;48.828;12.396;2022-08-19T13:18:55;18.20;;;16.40;;
4210;SDS011;2119;48.828;12.396;2022-08-19T13:23:56;19.20;;;17.23;;
4210;SDS011;2119;48.828;12.396;2022-08-19T13:28:56;17.77;;;16.10;;
4210;SDS011;2119;48.828;12.396;2022-08-19T13:34:16;17.13;;;15.53;;
4210;SDS011;2119;48.828;12.396;2022-08-19T13:39:16;17.90;;;16.40;;
4210;SDS011;2119;48.828;12.396;2022-08-19T13:44:17;18.43;;;16.73;;
4210;SDS011;2119;48.828;12.396;2022-08-19T13:49:20;16.40;;;15.03;;
4210;SDS011;2119;48.828;12.396;2022-08-19T13:54:20;16.10;;;14.70;;
4210;SDS011;2119;48.828;12.396;2022-08-19T13:59:21;14.63;;;13.43;;
4210;SDS011;2119;48.828;12.396;2022-08-19T14:04:21;14.50;;;13.20;;
4210;SDS011;2119;48.828;12.396;2022-08-19T14:09:22;13.43;;;12.23;;
4210;SDS011;2119;48.828;12.396;2022-08-19T14:14:22;12.80;;;11.80;;
4210;SDS011;2119;48.828;12.396;2022-08-19T14:19:22;13.73;;;12.63;;
4210;SDS011;2119;48.828;12.396;2022-08-19T14:24:23;13.10;;;12.00;;
4210;SDS011;2119;48.828;12.396;2022-08-19T14:29:23;12.38;;;11.25;;
4210;SDS011;2119;48.828;12.396;2022-08-19T14:34:23;11.18;;;10.27;;
4210;SDS011;2119;48.828;12.396;2022-08-19T14:39:23;11.80;;;10.90;;
4210;SDS011;2119;48.828;12.396;2022-08-19T14:44:24;11.10;;;10.10;;
4210;SDS011;2119;48.828;12.396;2022-08-19T14:49:24;11.90;;;10.90;;
4210;SDS011;2119;48.828;12.396;2022-08-19T14:54:24;10.80;;;10.03;;
4210;SDS011;2119;48.828;12.396;2022-08-19T14:59:25;10.43;;;9.73;;
4210;SDS011;2119;48.828;12.396;2022-08-19T15:04:25;10.57;;;9.80;;
4210;SDS011;2119;48.828;12.396;2022-08-19T15:09:25;11.00;;;10.10;;
4210;SDS011;2119;48.828;12.396;2022-08-19T15:14:26;12.90;;;9.60;;
4210;SDS011;2119;48.828;12.396;2022-08-19T15:19:27;11.00;;;10.20;;
4210;SDS011;2119;48.828;12.396;2022-08-19T15:24:27;14.07;;;12.97;;
4210;SDS011;2119;48.828;12.396;2022-08-19T15:29:27;14.07;;;12.77;;
4210;SDS011;2119;48.828;12.396;2022-08-19T15:34:28;12.48;;;11.45;;
4210;SDS011;2119;48.828;12.396;2022-08-19T15:39:31;9.43;;;8.73;;
4210;SDS011;2119;48.828;12.396;2022-08-19T15:44:31;4.87;;;4.57;;
4210;SDS011;2119;48.828;12.396;2022-08-19T15:49:32;3.97;;;3.77;;
4210;SDS011;2119;48.828;12.396;2022-08-19T15:54:32;5.15;;;4.85;;
4210;SDS011;2119;48.828;12.396;2022-08-19T15:59:33;6.33;;;6.00;;
4210;SDS011;2119;48.828;12.396;2022-08-19T16:04:52;8.43;;;7.93;;
4210;SDS011;2119;48.828;12.396;2022-08-19T16:10:11;9.67;;;8.80;;
4210;SDS011;2119;48.828;12.396;2022-08-19T16:15:13;8.50;;;7.90;;
4210;SDS011;2119;48.828;12.396;2022-08-19T16:20:14;7.83;;;7.33;;
4210;SDS011;2119;48.828;12.396;2022-08-19T16:25:15;8.73;;;8.13;;
4210;SDS011;2119;48.828;12.396;2022-08-19T16:30:16;11.33;;;10.33;;
4210;SDS011;2119;48.828;12.396;2022-08-19T16:35:16;11.37;;;10.50;;
4210;SDS011;2119;48.828;12.396;2022-08-19T16:40:16;11.97;;;10.83;;
4210;SDS011;2119;48.828;12.396;2022-08-19T16:45:17;12.93;;;11.83;;
4210;SDS011;2119;48.828;12.396;2022-08-19T16:50:20;16.30;;;14.90;;
4210;SDS011;2119;48.828;12.396;2022-08-19T16:55:21;17.90;;;16.10;;
4210;SDS011;2119;48.828;12.396;2022-08-19T17:00:21;16.67;;;14.90;;
4210;SDS011;2119;48.828;12.396;2022-08-19T17:05:22;16.53;;;15.10;;
4210;SDS011;2119;48.828;12.396;2022-08-19T17:10:22;16.13;;;14.53;;
4210;SDS011;2119;48.828;12.396;2022-08-19T17:15:22;13.57;;;12.47;;
4210;SDS011;2119;48.828;12.396;2022-08-19T17:20:22;15.47;;;13.90;;
4210;SDS011;2119;48.828;12.396;2022-08-19T17:25:23;15.13;;;13.90;;
4210;SDS011;2119;48.828;12.396;2022-08-19T17:30:24;16.07;;;14.77;;
4210;SDS011;2119;48.828;12.396;2022-08-19T17:35:24;17.07;;;15.57;;
4210;SDS011;2119;48.828;12.396;2022-08-19T17:40:26;16.67;;;14.90;;
4210;SDS011;2119;48.828;12.396;2022-08-19T17:45:26;16.48;;;15.07;;
4210;SDS011;2119;48.828;12.396;2022-08-19T17:50:27;18.33;;;16.57;;
4210;SDS011;2119;48.828;12.396;2022-08-19T17:55:27;19.30;;;17.10;;
4210;SDS011;2119;48.828;12.396;2022-08-19T18:00:28;19.97;;;18.03;;
4210;SDS011;2119;48.828;12.396;2022-08-19T18:05:30;18.20;;;16.60;;
4210;SDS011;2119;48.828;12.396;2022-08-19T18:10:30;20.47;;;18.57;;
4210;SDS011;2119;48.828;12.396;2022-08-19T18:15:31;21.73;;;19.60;;
4210;SDS011;2119;48.828;12.396;2022-08-19T18:20:31;19.70;;;17.80;;
4210;SDS011;2119;48.828;12.396;2022-08-19T18:25:31;20.17;;;18.27;;
4210;SDS011;2119;48.828;12.396;2022-08-19T18:30:31;21.98;;;19.65;;
4210;SDS011;2119;48.828;12.396;2022-08-19T18:35:33;20.50;;;18.60;;
4210;SDS011;2119;48.828;12.396;2022-08-19T18:40:35;21.60;;;19.67;;
4210;SDS011;2119;48.828;12.396;2022-08-19T18:45:54;19.47;;;17.77;;
4210;SDS011;2119;48.828;12.396;2022-08-19T18:51:13;19.90;;;18.10;;
4210;SDS011;2119;48.828;12.396;2022-08-19T18:56:16;19.23;;;17.43;;
4210;SDS011;2119;48.828;12.396;2022-08-19T19:01:20;13.17;;;12.07;;
4210;SDS011;2119;48.828;12.396;2022-08-19T19:06:25;7.20;;;6.50;;
4210;SDS011;2119;48.828;12.396;2022-08-19T19:11:29;3.40;;;3.20;;
4210;SDS011;2119;48.828;12.396;2022-08-19T19:16:30;3.50;;;3.30;;
4210;SDS011;2119;48.828;12.396;2022-08-19T19:21:30;3.27;;;3.07;;
4210;SDS011;2119;48.828;12.396;2022-08-19T19:26:32;2.93;;;2.73;;
4210;SDS011;2119;48.828;12.396;2022-08-19T19:31:32;5.23;;;4.83;;
4210;SDS011;2119;48.828;12.396;2022-08-19T19:36:33;9.37;;;8.47;;
4210;SDS011;2119;48.828;12.396;2022-08-19T19:41:33;8.83;;;8.00;;
4210;SDS011;2119;48.828;12.396;2022-08-19T19:46:36;11.87;;;10.80;;
4210;SDS011;2119;48.828;12.396;2022-08-19T19:51:36;12.00;;;10.90;;
4210;SDS011;2119;48.828;12.396;2022-08-19T19:56:40;12.90;;;11.63;;
4210;SDS011;2119;48.828;12.396;2022-08-19T20:01:42;13.80;;;11.73;;
4210;SDS011;2119;48.828;12.396;2022-08-19T20:06:45;13.03;;;11.77;;
4210;SDS011;2119;48.828;12.396;2022-08-19T20:11:51;13.93;;;12.57;;
4210;SDS011;2119;48.828;12.396;2022-08-19T20:16:52;14.53;;;13.23;;
4210;SDS011;2119;48.828;12.396;2022-08-19T20:21:53;14.20;;;12.90;;
4210;SDS011;2119;48.828;12.396;2022-08-19T20:26:56;15.43;;;13.93;;
4210;SDS011;2119;48.828;12.396;2022-08-19T20:31:56;16.33;;;14.57;;
4210;SDS011;2119;48.828;12.396;2022-08-19T20:36:57;16.27;;;14.67;;
4210;SDS011;2119;48.828;12.396;2022-08-19T20:41:57;16.50;;;15.00;;
4210;SDS011;2119;48.828;12.396;2022-08-19T20:46:59;16.70;;;14.93;;
4210;SDS011;2119;48.828;12.396;2022-08-19T20:52:00;15.47;;;13.97;;
4210;SDS011;2119;48.828;12.396;2022-08-19T20:57:00;14.57;;;13.27;;
4210;SDS011;2119;48.828;12.396;2022-08-19T21:02:02;15.00;;;13.60;;
4210;SDS011;2119;48.828;12.396;2022-08-19T21:07:03;15.27;;;14.00;;
4210;SDS011;2119;48.828;12.396;2022-08-19T21:12:04;15.67;;;14.27;;
4210;SDS011;2119;48.828;12.396;2022-08-19T21:17:04;14.90;;;13.60;;
4210;SDS011;2119;48.828;12.396;2022-08-19T21:22:04;15.17;;;13.87;;
4210;SDS011;2119;48.828;12.396;2022-08-19T21:27:05;15.43;;;13.87;;
4210;SDS011;2119;48.828;12.396;2022-08-19T21:32:05;14.70;;;13.40;;
4210;SDS011;2119;48.828;12.396;2022-08-19T21:37:05;15.33;;;13.80;;
4210;SDS011;2119;48.828;12.396;2022-08-19T21:42:06;16.37;;;14.47;;
4210;SDS011;2119;48.828;12.396;2022-08-19T21:47:06;15.40;;;13.93;;
4210;SDS011;2119;48.828;12.396;2022-08-19T21:52:07;15.97;;;14.47;;
4210;SDS011;2119;48.828;12.396;2022-08-19T21:57:07;15.20;;;13.83;;
4210;SDS011;2119;48.828;12.396;2022-08-19T22:02:07;14.50;;;13.13;;
4210;SDS011;2119;48.828;12.396;2022-08-19T22:07:09;13.33;;;12.23;;
4210;SDS011;2119;48.828;12.396;2022-08-19T22:12:21;13.70;;;12.50;;
4210;SDS011;2119;48.828;12.396;2022-08-19T22:17:22;15.80;;;14.20;;
4210;SDS011;2119;48.828;12.396;2022-08-19T22:22:24;15.80;;;14.30;;
4210;SDS011;2119;48.828;12.396;2022-08-19T22:27:24;18.63;;;16.13;;
4210;SDS011;2119;48.828;12.396;2022-08-19T22:32:25;18.10;;;16.30;;
4210;SDS011;2119;48.828;12.396;2022-08-19T22:37:26;20.03;;;17.40;;
4210;SDS011;2119;48.828;12.396;2022-08-19T22:42:28;18.60;;;16.80;;
4210;SDS011;2119;48.828;12.396;2022-08-19T22:47:30;19.20;;;17.20;;
4210;SDS011;2119;48.828;12.396;2022-08-19T22:52:30;17.40;;;15.75;;
4210;SDS011;2119;48.828;12.396;2022-08-19T22:57:31;16.47;;;14.70;;
4210;SDS011;2119;48.828;12.396;2022-08-19T23:02:32;16.17;;;14.60;;
4210;SDS011;2119;48.828;12.396;2022-08-19T23:07:33;15.83;;;14.07;;
4210;SDS011;2119;48.828;12.396;2022-08-19T23:12:35;16.00;;;13.97;;
4210;SDS011;2119;48.828;12.396;2022-08-19T23:17:39;11.50;;;10.60;;
4210;SDS011;2119;48.828;12.396;2022-08-19T23:22:41;12.00;;;10.80;;
4210;SDS011;2119;48.828;12.396;2022-08-19T23:27:42;11.30;;;10.20;;
4210;SDS011;2119;48.828;12.396;2022-08-19T23:33:02;10.70;;;9.80;;
4210;SDS011;2119;48.828;12.396;2022-08-19T23:38:08;10.03;;;9.13;;
4210;SDS011;2119;48.828;12.396;2022-08-19T23:43:08;11.23;;;10.23;;
4210;SDS011;2119;48.828;12.396;2022-08-19T23:48:09;10.93;;;9.93;;
4210;SDS011;2119;48.828;12.396;2022-08-19T23:53:10;10.97;;;9.97;;
4210;SDS011;2119;48.828;12.396;2022-08-19T23:58:10;9.93;;;9.13;;
